Taylortown, Louisiana
Current Conditions -  °F | °C
As of 7:58 AM on Thursday 23 Oct 2014 (Local Time) from KBAD Reporting Station
Few Clouds Few Clouds  
Wind Chill: 54°   Ceiling: Unl
Heat Index: 54°   Visibility: 10mi
Dew Point: 49°   Wind: 3mph
Humidity: 84%   Direction: 20°NNE
Pressure: 30.17"   Gusts: NA
Location:  32.3415°N, 93.4966°W
Report Text: KBAD 231258Z AUTO 02003KT 10SM FEW160 12/10 A3017 RMK AO2 SLP219 T01220095
Loading
Personal Weather Stations






























Interactive Weather Map
Tropical Storm Tracking
New forecast layout! Learn more

10-Day Weather Forecast

Advertisements
Track Severe Weather on mobile